Terminal Aerodrome Forecast
Issued by NWS Blacksburg, VA

Home | Current Version | Previous Version | Text Only | Print | Product List | Glossary On
Versions: 1 2 3 4 5 6 7 8 9 10 11 12 13 14 15 16 17 18 19 20 21 22 23 24 25 26 27 28 29
406
FTUS41 KRNK 211815 AAA
TAFLYH
TAF AMD
KLYH 211815Z 2118/2218 20010G20KT P6SM BKN080
     FM212200 20006KT P6SM BKN060
     FM220600 00000KT P6SM BKN060
     FM220800 00000KT P6SM SCT080
     FM221300 31007KT P6SM FEW150=

USA.gov is the U.S. government's official web portal to all federal, state and local government web resources and services.